sensor_id;sensor_type;location;lat;lon;timestamp;P1;durP1;ratioP1;P2;durP2;ratioP2
26435;SDS011;15351;52.408;16.826;2023-04-03T00:01:19;7.30;;;3.10;;
26435;SDS011;15351;52.408;16.826;2023-04-03T00:03:47;6.70;;;3.10;;
26435;SDS011;15351;52.408;16.826;2023-04-03T00:06:13;8.00;;;2.90;;
26435;SDS011;15351;52.408;16.826;2023-04-03T00:08:41;7.40;;;2.90;;
26435;SDS011;15351;52.408;16.826;2023-04-03T00:11:10;8.10;;;2.90;;
26435;SDS011;15351;52.408;16.826;2023-04-03T00:13:36;6.90;;;2.90;;
26435;SDS011;15351;52.408;16.826;2023-04-03T00:16:07;7.70;;;3.00;;
26435;SDS011;15351;52.408;16.826;2023-04-03T00:18:34;7.50;;;2.90;;
26435;SDS011;15351;52.408;16.826;2023-04-03T00:21:02;7.10;;;3.10;;
26435;SDS011;15351;52.408;16.826;2023-04-03T00:23:31;6.60;;;2.90;;
26435;SDS011;15351;52.408;16.826;2023-04-03T00:25:58;9.10;;;3.30;;
26435;SDS011;15351;52.408;16.826;2023-04-03T00:28:29;8.40;;;3.00;;
26435;SDS011;15351;52.408;16.826;2023-04-03T00:30:56;7.80;;;3.00;;
26435;SDS011;15351;52.408;16.826;2023-04-03T00:33:24;7.00;;;3.00;;
26435;SDS011;15351;52.408;16.826;2023-04-03T00:35:50;7.80;;;3.20;;
26435;SDS011;15351;52.408;16.826;2023-04-03T00:38:17;8.70;;;3.30;;
26435;SDS011;15351;52.408;16.826;2023-04-03T00:40:44;8.00;;;3.00;;
26435;SDS011;15351;52.408;16.826;2023-04-03T00:43:14;6.70;;;2.80;;
26435;SDS011;15351;52.408;16.826;2023-04-03T00:45:42;7.10;;;3.10;;
26435;SDS011;15351;52.408;16.826;2023-04-03T00:48:11;7.30;;;2.90;;
26435;SDS011;15351;52.408;16.826;2023-04-03T00:50:46;7.60;;;3.00;;
26435;SDS011;15351;52.408;16.826;2023-04-03T00:53:16;8.60;;;3.40;;
26435;SDS011;15351;52.408;16.826;2023-04-03T00:55:50;7.50;;;2.60;;
26435;SDS011;15351;52.408;16.826;2023-04-03T00:58:55;5.50;;;2.50;;
26435;SDS011;15351;52.408;16.826;2023-04-03T01:01:47;5.30;;;2.50;;
26435;SDS011;15351;52.408;16.826;2023-04-03T01:07:21;5.00;;;2.40;;
26435;SDS011;15351;52.408;16.826;2023-04-03T01:09:58;6.60;;;2.90;;
26435;SDS011;15351;52.408;16.826;2023-04-03T01:12:28;7.40;;;2.60;;
26435;SDS011;15351;52.408;16.826;2023-04-03T01:15:06;6.90;;;2.50;;
26435;SDS011;15351;52.408;16.826;2023-04-03T01:17:41;8.50;;;2.40;;
26435;SDS011;15351;52.408;16.826;2023-04-03T01:23:03;6.90;;;2.50;;
26435;SDS011;15351;52.408;16.826;2023-04-03T01:25:58;7.10;;;2.50;;
26435;SDS011;15351;52.408;16.826;2023-04-03T01:28:29;7.20;;;2.40;;
26435;SDS011;15351;52.408;16.826;2023-04-03T01:31:12;6.70;;;2.50;;
26435;SDS011;15351;52.408;16.826;2023-04-03T01:33:49;8.10;;;2.30;;
26435;SDS011;15351;52.408;16.826;2023-04-03T01:36:27;6.70;;;2.50;;
26435;SDS011;15351;52.408;16.826;2023-04-03T01:38:58;6.80;;;2.50;;
26435;SDS011;15351;52.408;16.826;2023-04-03T01:41:26;8.40;;;3.00;;
26435;SDS011;15351;52.408;16.826;2023-04-03T01:43:59;6.50;;;2.50;;
26435;SDS011;15351;52.408;16.826;2023-04-03T01:46:29;7.30;;;2.60;;
26435;SDS011;15351;52.408;16.826;2023-04-03T01:48:59;5.90;;;2.60;;
26435;SDS011;15351;52.408;16.826;2023-04-03T01:51:27;6.90;;;2.50;;
26435;SDS011;15351;52.408;16.826;2023-04-03T01:53:53;6.40;;;2.30;;
26435;SDS011;15351;52.408;16.826;2023-04-03T01:56:20;5.50;;;2.40;;
26435;SDS011;15351;52.408;16.826;2023-04-03T01:58:47;6.10;;;2.50;;
26435;SDS011;15351;52.408;16.826;2023-04-03T02:01:13;8.10;;;2.60;;
26435;SDS011;15351;52.408;16.826;2023-04-03T02:03:40;4.40;;;2.20;;
26435;SDS011;15351;52.408;16.826;2023-04-03T02:06:13;6.50;;;2.40;;
26435;SDS011;15351;52.408;16.826;2023-04-03T02:08:40;6.00;;;2.60;;
26435;SDS011;15351;52.408;16.826;2023-04-03T02:11:07;5.60;;;2.50;;
26435;SDS011;15351;52.408;16.826;2023-04-03T02:13:34;6.80;;;2.30;;
26435;SDS011;15351;52.408;16.826;2023-04-03T02:16:08;6.60;;;2.50;;
26435;SDS011;15351;52.408;16.826;2023-04-03T02:18:37;7.10;;;2.60;;
26435;SDS011;15351;52.408;16.826;2023-04-03T02:21:08;7.50;;;2.70;;
26435;SDS011;15351;52.408;16.826;2023-04-03T02:23:54;6.80;;;2.30;;
26435;SDS011;15351;52.408;16.826;2023-04-03T02:26:20;6.60;;;2.60;;
26435;SDS011;15351;52.408;16.826;2023-04-03T02:28:47;6.60;;;2.50;;
26435;SDS011;15351;52.408;16.826;2023-04-03T02:31:15;5.80;;;2.40;;
26435;SDS011;15351;52.408;16.826;2023-04-03T02:33:42;7.90;;;2.50;;
26435;SDS011;15351;52.408;16.826;2023-04-03T02:36:09;6.50;;;2.50;;
26435;SDS011;15351;52.408;16.826;2023-04-03T02:38:40;5.10;;;2.30;;
26435;SDS011;15351;52.408;16.826;2023-04-03T02:41:10;7.50;;;2.50;;
26435;SDS011;15351;52.408;16.826;2023-04-03T02:43:47;7.60;;;2.60;;
26435;SDS011;15351;52.408;16.826;2023-04-03T02:46:15;7.90;;;2.70;;
26435;SDS011;15351;52.408;16.826;2023-04-03T02:48:43;7.50;;;2.70;;
26435;SDS011;15351;52.408;16.826;2023-04-03T02:51:10;9.60;;;3.10;;
26435;SDS011;15351;52.408;16.826;2023-04-03T02:53:36;9.10;;;2.90;;
26435;SDS011;15351;52.408;16.826;2023-04-03T02:56:13;6.00;;;2.50;;
26435;SDS011;15351;52.408;16.826;2023-04-03T02:58:43;8.40;;;2.60;;
26435;SDS011;15351;52.408;16.826;2023-04-03T03:01:11;7.90;;;2.70;;
26435;SDS011;15351;52.408;16.826;2023-04-03T03:03:40;7.30;;;2.80;;
26435;SDS011;15351;52.408;16.826;2023-04-03T03:06:17;5.60;;;2.60;;
26435;SDS011;15351;52.408;16.826;2023-04-03T03:08:53;6.10;;;2.40;;
26435;SDS011;15351;52.408;16.826;2023-04-03T03:11:19;7.20;;;2.30;;
26435;SDS011;15351;52.408;16.826;2023-04-03T03:13:47;4.80;;;2.20;;
26435;SDS011;15351;52.408;16.826;2023-04-03T03:16:24;7.70;;;2.50;;
26435;SDS011;15351;52.408;16.826;2023-04-03T03:18:56;6.60;;;2.50;;
26435;SDS011;15351;52.408;16.826;2023-04-03T03:21:23;7.00;;;2.70;;
26435;SDS011;15351;52.408;16.826;2023-04-03T03:23:50;7.20;;;3.10;;
26435;SDS011;15351;52.408;16.826;2023-04-03T03:26:18;8.20;;;3.70;;
26435;SDS011;15351;52.408;16.826;2023-04-03T03:28:44;7.10;;;3.00;;
26435;SDS011;15351;52.408;16.826;2023-04-03T03:31:12;9.30;;;2.70;;
26435;SDS011;15351;52.408;16.826;2023-04-03T03:33:41;8.40;;;3.20;;
26435;SDS011;15351;52.408;16.826;2023-04-03T03:36:08;7.30;;;3.10;;
26435;SDS011;15351;52.408;16.826;2023-04-03T03:38:36;6.10;;;2.50;;
26435;SDS011;15351;52.408;16.826;2023-04-03T03:41:18;6.50;;;2.40;;
26435;SDS011;15351;52.408;16.826;2023-04-03T03:43:47;6.70;;;2.30;;
26435;SDS011;15351;52.408;16.826;2023-04-03T03:46:16;7.10;;;2.40;;
26435;SDS011;15351;52.408;16.826;2023-04-03T03:48:43;6.60;;;2.70;;
26435;SDS011;15351;52.408;16.826;2023-04-03T03:51:10;7.30;;;2.40;;
26435;SDS011;15351;52.408;16.826;2023-04-03T03:53:37;7.70;;;2.60;;
26435;SDS011;15351;52.408;16.826;2023-04-03T03:56:07;6.70;;;2.70;;
26435;SDS011;15351;52.408;16.826;2023-04-03T03:58:34;6.40;;;2.40;;
26435;SDS011;15351;52.408;16.826;2023-04-03T04:01:04;6.80;;;2.60;;
26435;SDS011;15351;52.408;16.826;2023-04-03T04:03:32;6.60;;;2.50;;
26435;SDS011;15351;52.408;16.826;2023-04-03T04:05:59;7.60;;;2.70;;
26435;SDS011;15351;52.408;16.826;2023-04-03T04:08:26;8.50;;;2.90;;
26435;SDS011;15351;52.408;16.826;2023-04-03T04:10:53;8.30;;;3.00;;
26435;SDS011;15351;52.408;16.826;2023-04-03T04:13:20;8.60;;;3.10;;
26435;SDS011;15351;52.408;16.826;2023-04-03T04:15:50;6.70;;;2.80;;
26435;SDS011;15351;52.408;16.826;2023-04-03T04:18:17;7.40;;;2.70;;
26435;SDS011;15351;52.408;16.826;2023-04-03T04:20:47;9.20;;;2.70;;
26435;SDS011;15351;52.408;16.826;2023-04-03T04:23:15;6.80;;;2.80;;
26435;SDS011;15351;52.408;16.826;2023-04-03T04:25:47;6.20;;;2.80;;
26435;SDS011;15351;52.408;16.826;2023-04-03T04:28:15;7.00;;;2.90;;
26435;SDS011;15351;52.408;16.826;2023-04-03T04:30:43;6.80;;;2.60;;
26435;SDS011;15351;52.408;16.826;2023-04-03T04:33:11;6.70;;;2.90;;
26435;SDS011;15351;52.408;16.826;2023-04-03T04:35:42;7.40;;;2.60;;
26435;SDS011;15351;52.408;16.826;2023-04-03T04:38:13;6.80;;;2.70;;
26435;SDS011;15351;52.408;16.826;2023-04-03T04:40:40;6.60;;;3.00;;
26435;SDS011;15351;52.408;16.826;2023-04-03T04:43:08;8.60;;;3.00;;
26435;SDS011;15351;52.408;16.826;2023-04-03T04:45:35;8.70;;;3.00;;
26435;SDS011;15351;52.408;16.826;2023-04-03T04:48:03;9.00;;;2.90;;
26435;SDS011;15351;52.408;16.826;2023-04-03T04:50:30;8.00;;;2.90;;
26435;SDS011;15351;52.408;16.826;2023-04-03T04:52:58;7.50;;;3.30;;
26435;SDS011;15351;52.408;16.826;2023-04-03T04:55:24;7.90;;;3.20;;
26435;SDS011;15351;52.408;16.826;2023-04-03T04:57:52;8.10;;;3.30;;
26435;SDS011;15351;52.408;16.826;2023-04-03T05:00:19;8.10;;;3.40;;
26435;SDS011;15351;52.408;16.826;2023-04-03T05:02:47;8.30;;;3.30;;
26435;SDS011;15351;52.408;16.826;2023-04-03T05:05:13;7.60;;;3.20;;
26435;SDS011;15351;52.408;16.826;2023-04-03T05:07:41;9.70;;;3.20;;
26435;SDS011;15351;52.408;16.826;2023-04-03T05:10:08;6.50;;;2.90;;
26435;SDS011;15351;52.408;16.826;2023-04-03T05:12:48;6.50;;;3.10;;
26435;SDS011;15351;52.408;16.826;2023-04-03T05:15:15;7.80;;;3.30;;
26435;SDS011;15351;52.408;16.826;2023-04-03T05:17:43;8.80;;;3.40;;
26435;SDS011;15351;52.408;16.826;2023-04-03T05:20:18;8.10;;;3.30;;
26435;SDS011;15351;52.408;16.826;2023-04-03T05:22:50;8.60;;;3.90;;
26435;SDS011;15351;52.408;16.826;2023-04-03T05:25:17;7.80;;;3.70;;
26435;SDS011;15351;52.408;16.826;2023-04-03T05:27:50;11.90;;;4.20;;
26435;SDS011;15351;52.408;16.826;2023-04-03T05:30:17;16.70;;;7.60;;
26435;SDS011;15351;52.408;16.826;2023-04-03T05:32:44;13.20;;;6.00;;
26435;SDS011;15351;52.408;16.826;2023-04-03T05:35:17;23.90;;;12.70;;
26435;SDS011;15351;52.408;16.826;2023-04-03T05:37:46;15.30;;;6.90;;
26435;SDS011;15351;52.408;16.826;2023-04-03T05:40:13;11.60;;;5.80;;
26435;SDS011;15351;52.408;16.826;2023-04-03T05:42:43;11.10;;;5.00;;
26435;SDS011;15351;52.408;16.826;2023-04-03T05:45:10;8.10;;;3.60;;
26435;SDS011;15351;52.408;16.826;2023-04-03T05:47:36;8.10;;;3.50;;
26435;SDS011;15351;52.408;16.826;2023-04-03T05:50:06;9.40;;;4.00;;
26435;SDS011;15351;52.408;16.826;2023-04-03T05:52:35;10.60;;;3.90;;
26435;SDS011;15351;52.408;16.826;2023-04-03T05:55:03;9.10;;;3.10;;
26435;SDS011;15351;52.408;16.826;2023-04-03T05:57:33;7.20;;;4.00;;
26435;SDS011;15351;52.408;16.826;2023-04-03T05:59:59;10.00;;;3.80;;
26435;SDS011;15351;52.408;16.826;2023-04-03T06:02:29;7.80;;;3.90;;
26435;SDS011;15351;52.408;16.826;2023-04-03T06:04:57;9.00;;;3.90;;
26435;SDS011;15351;52.408;16.826;2023-04-03T06:07:27;7.60;;;3.60;;
26435;SDS011;15351;52.408;16.826;2023-04-03T06:09:55;8.00;;;3.70;;
26435;SDS011;15351;52.408;16.826;2023-04-03T06:12:24;10.80;;;3.80;;
26435;SDS011;15351;52.408;16.826;2023-04-03T06:14:51;10.00;;;4.10;;
26435;SDS011;15351;52.408;16.826;2023-04-03T06:17:18;9.10;;;3.90;;
26435;SDS011;15351;52.408;16.826;2023-04-03T06:19:45;9.20;;;4.10;;
26435;SDS011;15351;52.408;16.826;2023-04-03T06:22:12;11.50;;;4.00;;
26435;SDS011;15351;52.408;16.826;2023-04-03T06:24:40;10.40;;;3.70;;
26435;SDS011;15351;52.408;16.826;2023-04-03T06:27:10;10.00;;;4.40;;
26435;SDS011;15351;52.408;16.826;2023-04-03T06:29:46;9.80;;;3.90;;
26435;SDS011;15351;52.408;16.826;2023-04-03T06:32:12;9.40;;;3.20;;
26435;SDS011;15351;52.408;16.826;2023-04-03T06:34:39;8.40;;;3.30;;
26435;SDS011;15351;52.408;16.826;2023-04-03T06:37:20;7.50;;;3.20;;
26435;SDS011;15351;52.408;16.826;2023-04-03T06:39:55;7.60;;;2.80;;
26435;SDS011;15351;52.408;16.826;2023-04-03T06:42:33;6.40;;;3.00;;
26435;SDS011;15351;52.408;16.826;2023-04-03T06:45:08;7.30;;;2.90;;
26435;SDS011;15351;52.408;16.826;2023-04-03T06:47:45;6.10;;;2.80;;
26435;SDS011;15351;52.408;16.826;2023-04-03T06:50:12;6.70;;;2.80;;
26435;SDS011;15351;52.408;16.826;2023-04-03T06:52:49;8.60;;;2.50;;
26435;SDS011;15351;52.408;16.826;2023-04-03T06:58:19;5.30;;;2.40;;
26435;SDS011;15351;52.408;16.826;2023-04-03T07:00:45;7.80;;;2.50;;
26435;SDS011;15351;52.408;16.826;2023-04-03T07:03:22;5.90;;;2.60;;
26435;SDS011;15351;52.408;16.826;2023-04-03T07:05:50;5.40;;;2.40;;
26435;SDS011;15351;52.408;16.826;2023-04-03T07:08:17;5.00;;;2.00;;
26435;SDS011;15351;52.408;16.826;2023-04-03T07:10:44;6.50;;;2.30;;
26435;SDS011;15351;52.408;16.826;2023-04-03T07:13:36;6.10;;;2.40;;
26435;SDS011;15351;52.408;16.826;2023-04-03T07:16:24;6.20;;;2.40;;
26435;SDS011;15351;52.408;16.826;2023-04-03T07:18:53;4.80;;;2.30;;
26435;SDS011;15351;52.408;16.826;2023-04-03T07:21:29;5.80;;;2.50;;
26435;SDS011;15351;52.408;16.826;2023-04-03T07:24:12;5.20;;;2.30;;
26435;SDS011;15351;52.408;16.826;2023-04-03T07:26:48;8.50;;;2.40;;
26435;SDS011;15351;52.408;16.826;2023-04-03T07:29:18;7.90;;;2.50;;
26435;SDS011;15351;52.408;16.826;2023-04-03T07:31:49;7.50;;;2.20;;
26435;SDS011;15351;52.408;16.826;2023-04-03T07:34:31;4.80;;;2.30;;
26435;SDS011;15351;52.408;16.826;2023-04-03T07:36:59;6.90;;;2.20;;
26435;SDS011;15351;52.408;16.826;2023-04-03T07:39:52;5.60;;;2.30;;
26435;SDS011;15351;52.408;16.826;2023-04-03T07:42:18;5.10;;;2.20;;
26435;SDS011;15351;52.408;16.826;2023-04-03T07:44:46;5.30;;;2.20;;
26435;SDS011;15351;52.408;16.826;2023-04-03T07:47:17;6.30;;;2.70;;
26435;SDS011;15351;52.408;16.826;2023-04-03T07:50:58;6.40;;;2.20;;
26435;SDS011;15351;52.408;16.826;2023-04-03T07:53:49;4.90;;;2.10;;
26435;SDS011;15351;52.408;16.826;2023-04-03T07:56:25;5.80;;;2.60;;
26435;SDS011;15351;52.408;16.826;2023-04-03T07:59:09;5.30;;;2.10;;
26435;SDS011;15351;52.408;16.826;2023-04-03T08:05:04;7.60;;;2.50;;
26435;SDS011;15351;52.408;16.826;2023-04-03T08:11:02;6.20;;;2.40;;
26435;SDS011;15351;52.408;16.826;2023-04-03T08:13:48;4.80;;;2.30;;
26435;SDS011;15351;52.408;16.826;2023-04-03T08:16:34;5.80;;;2.20;;
26435;SDS011;15351;52.408;16.826;2023-04-03T08:19:23;5.80;;;2.60;;
26435;SDS011;15351;52.408;16.826;2023-04-03T08:23:07;7.40;;;2.50;;
26435;SDS011;15351;52.408;16.826;2023-04-03T08:26:08;5.60;;;2.40;;
26435;SDS011;15351;52.408;16.826;2023-04-03T08:29:15;5.90;;;2.60;;
26435;SDS011;15351;52.408;16.826;2023-04-03T08:35:22;5.70;;;2.50;;
26435;SDS011;15351;52.408;16.826;2023-04-03T08:38:11;7.40;;;2.80;;
26435;SDS011;15351;52.408;16.826;2023-04-03T08:41:14;4.10;;;1.90;;
26435;SDS011;15351;52.408;16.826;2023-04-03T08:47:41;4.30;;;2.30;;
26435;SDS011;15351;52.408;16.826;2023-04-03T08:50:41;5.30;;;2.20;;
26435;SDS011;15351;52.408;16.826;2023-04-03T09:00:25;4.80;;;2.20;;
26435;SDS011;15351;52.408;16.826;2023-04-03T09:10:08;4.10;;;2.10;;
26435;SDS011;15351;52.408;16.826;2023-04-03T09:13:09;7.20;;;3.10;;
26435;SDS011;15351;52.408;16.826;2023-04-03T09:16:25;3.50;;;2.00;;
26435;SDS011;15351;52.408;16.826;2023-04-03T09:19:41;6.10;;;2.20;;
26435;SDS011;15351;52.408;16.826;2023-04-03T09:22:43;4.00;;;2.10;;
26435;SDS011;15351;52.408;16.826;2023-04-03T09:25:21;4.60;;;1.80;;
26435;SDS011;15351;52.408;16.826;2023-04-03T09:28:32;6.10;;;1.90;;
26435;SDS011;15351;52.408;16.826;2023-04-03T09:53:41;4.60;;;2.00;;
26435;SDS011;15351;52.408;16.826;2023-04-03T09:56:33;6.00;;;2.10;;
26435;SDS011;15351;52.408;16.826;2023-04-03T09:59:06;4.00;;;2.20;;
26435;SDS011;15351;52.408;16.826;2023-04-03T10:05:44;4.10;;;2.00;;
26435;SDS011;15351;52.408;16.826;2023-04-03T10:08:29;3.90;;;1.70;;
26435;SDS011;15351;52.408;16.826;2023-04-03T10:12:12;3.80;;;2.00;;
26435;SDS011;15351;52.408;16.826;2023-04-03T10:16:12;3.10;;;1.80;;
26435;SDS011;15351;52.408;16.826;2023-04-03T10:36:18;4.40;;;1.80;;
26435;SDS011;15351;52.408;16.826;2023-04-03T10:46:37;4.30;;;2.40;;
26435;SDS011;15351;52.408;16.826;2023-04-03T10:50:20;3.40;;;2.20;;
26435;SDS011;15351;52.408;16.826;2023-04-03T10:58:02;4.10;;;2.40;;
26435;SDS011;15351;52.408;16.826;2023-04-03T11:01:02;5.80;;;2.60;;
26435;SDS011;15351;52.408;16.826;2023-04-03T11:04:06;4.50;;;2.10;;
26435;SDS011;15351;52.408;16.826;2023-04-03T11:06:50;3.90;;;2.00;;
26435;SDS011;15351;52.408;16.826;2023-04-03T11:09:49;4.10;;;2.10;;
26435;SDS011;15351;52.408;16.826;2023-04-03T11:16:07;3.20;;;2.20;;
26435;SDS011;15351;52.408;16.826;2023-04-03T11:18:45;4.90;;;2.00;;
26435;SDS011;15351;52.408;16.826;2023-04-03T11:28:23;3.90;;;1.90;;
26435;SDS011;15351;52.408;16.826;2023-04-03T11:34:52;4.20;;;1.80;;
26435;SDS011;15351;52.408;16.826;2023-04-03T11:38:04;5.10;;;1.90;;
26435;SDS011;15351;52.408;16.826;2023-04-03T11:41:40;4.90;;;2.20;;
26435;SDS011;15351;52.408;16.826;2023-04-03T11:47:12;6.90;;;2.80;;
26435;SDS011;15351;52.408;16.826;2023-04-03T11:53:39;3.70;;;1.90;;
26435;SDS011;15351;52.408;16.826;2023-04-03T11:56:50;6.10;;;3.30;;
26435;SDS011;15351;52.408;16.826;2023-04-03T12:02:16;4.70;;;2.30;;
26435;SDS011;15351;52.408;16.826;2023-04-03T12:05:29;5.90;;;2.20;;
26435;SDS011;15351;52.408;16.826;2023-04-03T12:28:43;5.60;;;2.00;;
26435;SDS011;15351;52.408;16.826;2023-04-03T12:31:37;3.50;;;2.00;;
26435;SDS011;15351;52.408;16.826;2023-04-03T12:35:14;4.60;;;2.50;;
26435;SDS011;15351;52.408;16.826;2023-04-03T12:38:26;3.60;;;2.00;;
26435;SDS011;15351;52.408;16.826;2023-04-03T12:48:27;3.90;;;1.90;;
26435;SDS011;15351;52.408;16.826;2023-04-03T12:51:50;3.60;;;1.80;;
26435;SDS011;15351;52.408;16.826;2023-04-03T12:54:37;8.70;;;2.80;;
26435;SDS011;15351;52.408;16.826;2023-04-03T13:03:39;4.30;;;2.60;;
26435;SDS011;15351;52.408;16.826;2023-04-03T13:06:26;5.20;;;2.70;;
26435;SDS011;15351;52.408;16.826;2023-04-03T13:09:03;6.30;;;2.60;;
26435;SDS011;15351;52.408;16.826;2023-04-03T13:12:07;4.30;;;2.30;;
26435;SDS011;15351;52.408;16.826;2023-04-03T13:15:29;4.70;;;2.40;;
26435;SDS011;15351;52.408;16.826;2023-04-03T13:18:05;4.90;;;2.70;;
26435;SDS011;15351;52.408;16.826;2023-04-03T13:24:06;6.10;;;2.90;;
26435;SDS011;15351;52.408;16.826;2023-04-03T13:29:55;4.00;;;2.50;;
26435;SDS011;15351;52.408;16.826;2023-04-03T13:33:20;5.60;;;2.50;;
26435;SDS011;15351;52.408;16.826;2023-04-03T13:36:00;4.20;;;2.20;;
26435;SDS011;15351;52.408;16.826;2023-04-03T13:38:34;4.30;;;2.40;;
26435;SDS011;15351;52.408;16.826;2023-04-03T13:41:23;6.80;;;3.00;;
26435;SDS011;15351;52.408;16.826;2023-04-03T13:44:03;7.10;;;2.60;;
26435;SDS011;15351;52.408;16.826;2023-04-03T13:46:54;5.00;;;2.20;;
26435;SDS011;15351;52.408;16.826;2023-04-03T13:53:08;4.50;;;3.20;;
26435;SDS011;15351;52.408;16.826;2023-04-03T13:55:59;6.90;;;3.80;;
26435;SDS011;15351;52.408;16.826;2023-04-03T14:02:53;5.30;;;2.80;;
26435;SDS011;15351;52.408;16.826;2023-04-03T14:05:27;5.10;;;2.80;;
26435;SDS011;15351;52.408;16.826;2023-04-03T14:07:56;5.30;;;3.10;;
26435;SDS011;15351;52.408;16.826;2023-04-03T14:10:29;3.90;;;2.40;;
26435;SDS011;15351;52.408;16.826;2023-04-03T14:12:59;4.20;;;2.60;;
26435;SDS011;15351;52.408;16.826;2023-04-03T14:15:28;3.90;;;2.50;;
26435;SDS011;15351;52.408;16.826;2023-04-03T14:18:12;4.30;;;2.20;;
26435;SDS011;15351;52.408;16.826;2023-04-03T14:20:42;4.40;;;2.40;;
26435;SDS011;15351;52.408;16.826;2023-04-03T14:23:29;4.90;;;2.90;;
26435;SDS011;15351;52.408;16.826;2023-04-03T14:26:22;4.10;;;2.40;;
26435;SDS011;15351;52.408;16.826;2023-04-03T14:29:26;5.70;;;2.40;;
26435;SDS011;15351;52.408;16.826;2023-04-03T14:31:56;4.80;;;2.80;;
26435;SDS011;15351;52.408;16.826;2023-04-03T14:34:22;4.20;;;2.40;;
26435;SDS011;15351;52.408;16.826;2023-04-03T14:36:51;5.80;;;2.70;;
26435;SDS011;15351;52.408;16.826;2023-04-03T14:39:18;3.40;;;2.10;;
26435;SDS011;15351;52.408;16.826;2023-04-03T14:41:58;3.80;;;2.40;;
26435;SDS011;15351;52.408;16.826;2023-04-03T14:47:11;5.00;;;2.60;;
26435;SDS011;15351;52.408;16.826;2023-04-03T14:50:24;4.80;;;2.70;;
26435;SDS011;15351;52.408;16.826;2023-04-03T14:53:16;5.60;;;2.50;;
26435;SDS011;15351;52.408;16.826;2023-04-03T14:55:52;8.20;;;3.20;;
26435;SDS011;15351;52.408;16.826;2023-04-03T14:58:23;6.40;;;3.00;;
26435;SDS011;15351;52.408;16.826;2023-04-03T15:01:16;5.00;;;2.50;;
26435;SDS011;15351;52.408;16.826;2023-04-03T15:04:26;5.70;;;2.80;;
26435;SDS011;15351;52.408;16.826;2023-04-03T15:07:41;5.80;;;3.10;;
26435;SDS011;15351;52.408;16.826;2023-04-03T15:10:22;4.40;;;2.50;;
26435;SDS011;15351;52.408;16.826;2023-04-03T15:13:04;9.30;;;2.60;;
26435;SDS011;15351;52.408;16.826;2023-04-03T15:15:38;4.20;;;2.00;;
26435;SDS011;15351;52.408;16.826;2023-04-03T15:21:31;4.20;;;2.20;;
26435;SDS011;15351;52.408;16.826;2023-04-03T15:24:02;6.40;;;2.80;;
26435;SDS011;15351;52.408;16.826;2023-04-03T15:26:29;9.10;;;3.30;;
26435;SDS011;15351;52.408;16.826;2023-04-03T15:28:56;7.00;;;4.60;;
26435;SDS011;15351;52.408;16.826;2023-04-03T15:31:33;9.20;;;4.60;;
26435;SDS011;15351;52.408;16.826;2023-04-03T15:34:01;4.10;;;2.60;;
26435;SDS011;15351;52.408;16.826;2023-04-03T15:36:35;5.20;;;2.20;;
26435;SDS011;15351;52.408;16.826;2023-04-03T15:39:16;7.90;;;2.70;;
26435;SDS011;15351;52.408;16.826;2023-04-03T15:41:42;4.10;;;2.50;;
26435;SDS011;15351;52.408;16.826;2023-04-03T15:44:13;6.10;;;2.50;;
26435;SDS011;15351;52.408;16.826;2023-04-03T15:46:46;4.50;;;2.60;;
26435;SDS011;15351;52.408;16.826;2023-04-03T15:49:20;5.40;;;2.70;;
26435;SDS011;15351;52.408;16.826;2023-04-03T15:51:49;4.60;;;2.50;;
26435;SDS011;15351;52.408;16.826;2023-04-03T15:54:15;5.60;;;3.20;;
26435;SDS011;15351;52.408;16.826;2023-04-03T15:56:43;6.80;;;3.50;;
26435;SDS011;15351;52.408;16.826;2023-04-03T15:59:18;5.70;;;2.80;;
26435;SDS011;15351;52.408;16.826;2023-04-03T16:01:51;6.10;;;2.60;;
26435;SDS011;15351;52.408;16.826;2023-04-03T16:07:43;4.90;;;2.80;;
26435;SDS011;15351;52.408;16.826;2023-04-03T16:10:14;5.80;;;3.00;;
26435;SDS011;15351;52.408;16.826;2023-04-03T16:12:43;5.90;;;2.50;;
26435;SDS011;15351;52.408;16.826;2023-04-03T16:15:11;4.00;;;2.30;;
26435;SDS011;15351;52.408;16.826;2023-04-03T16:17:42;3.80;;;2.50;;
26435;SDS011;15351;52.408;16.826;2023-04-03T16:20:12;7.60;;;4.70;;
26435;SDS011;15351;52.408;16.826;2023-04-03T16:23:26;10.00;;;7.10;;
26435;SDS011;15351;52.408;16.826;2023-04-03T16:26:04;5.70;;;3.80;;
26435;SDS011;15351;52.408;16.826;2023-04-03T16:28:31;3.60;;;1.80;;
26435;SDS011;15351;52.408;16.826;2023-04-03T16:30:59;4.70;;;1.90;;
26435;SDS011;15351;52.408;16.826;2023-04-03T16:33:30;13.00;;;9.40;;
26435;SDS011;15351;52.408;16.826;2023-04-03T16:36:05;10.20;;;7.10;;
26435;SDS011;15351;52.408;16.826;2023-04-03T16:39:01;5.00;;;2.80;;
26435;SDS011;15351;52.408;16.826;2023-04-03T16:41:30;6.40;;;2.90;;
26435;SDS011;15351;52.408;16.826;2023-04-03T16:44:07;5.60;;;2.90;;
26435;SDS011;15351;52.408;16.826;2023-04-03T16:46:59;4.60;;;2.30;;
26435;SDS011;15351;52.408;16.826;2023-04-03T16:49:25;4.10;;;2.30;;
26435;SDS011;15351;52.408;16.826;2023-04-03T16:51:58;4.00;;;2.30;;
26435;SDS011;15351;52.408;16.826;2023-04-03T16:55:07;4.30;;;2.40;;
26435;SDS011;15351;52.408;16.826;2023-04-03T16:57:34;5.30;;;2.90;;
26435;SDS011;15351;52.408;16.826;2023-04-03T17:00:11;6.50;;;3.60;;
26435;SDS011;15351;52.408;16.826;2023-04-03T17:02:39;6.50;;;3.40;;
26435;SDS011;15351;52.408;16.826;2023-04-03T17:05:06;5.40;;;3.00;;
26435;SDS011;15351;52.408;16.826;2023-04-03T17:07:33;7.60;;;3.50;;
26435;SDS011;15351;52.408;16.826;2023-04-03T17:12:48;6.50;;;3.50;;
26435;SDS011;15351;52.408;16.826;2023-04-03T17:15:27;10.80;;;5.80;;
26435;SDS011;15351;52.408;16.826;2023-04-03T17:17:53;9.30;;;5.30;;
26435;SDS011;15351;52.408;16.826;2023-04-03T17:20:21;8.40;;;5.10;;
26435;SDS011;15351;52.408;16.826;2023-04-03T17:23:16;8.60;;;4.50;;
26435;SDS011;15351;52.408;16.826;2023-04-03T17:25:44;7.50;;;4.40;;
26435;SDS011;15351;52.408;16.826;2023-04-03T17:28:21;8.60;;;4.30;;
26435;SDS011;15351;52.408;16.826;2023-04-03T17:31:07;8.70;;;5.30;;
26435;SDS011;15351;52.408;16.826;2023-04-03T17:33:46;9.90;;;5.40;;
26435;SDS011;15351;52.408;16.826;2023-04-03T17:36:17;7.80;;;5.10;;
26435;SDS011;15351;52.408;16.826;2023-04-03T17:38:55;8.80;;;5.60;;
26435;SDS011;15351;52.408;16.826;2023-04-03T17:44:20;13.00;;;8.90;;
26435;SDS011;15351;52.408;16.826;2023-04-03T17:46:55;16.90;;;10.30;;
26435;SDS011;15351;52.408;16.826;2023-04-03T17:49:40;14.00;;;8.90;;
26435;SDS011;15351;52.408;16.826;2023-04-03T17:52:27;11.80;;;7.80;;
26435;SDS011;15351;52.408;16.826;2023-04-03T17:55:09;12.90;;;7.50;;
26435;SDS011;15351;52.408;16.826;2023-04-03T17:58:00;11.50;;;7.10;;
26435;SDS011;15351;52.408;16.826;2023-04-03T18:01:12;9.10;;;6.10;;
26435;SDS011;15351;52.408;16.826;2023-04-03T18:03:46;11.10;;;7.30;;
26435;SDS011;15351;52.408;16.826;2023-04-03T18:06:16;14.30;;;8.00;;
26435;SDS011;15351;52.408;16.826;2023-04-03T18:08:47;15.00;;;8.40;;
26435;SDS011;15351;52.408;16.826;2023-04-03T18:11:17;14.90;;;7.90;;
26435;SDS011;15351;52.408;16.826;2023-04-03T18:13:47;16.10;;;6.30;;
26435;SDS011;15351;52.408;16.826;2023-04-03T18:16:30;9.50;;;4.60;;
26435;SDS011;15351;52.408;16.826;2023-04-03T18:19:09;7.10;;;4.20;;
26435;SDS011;15351;52.408;16.826;2023-04-03T18:22:13;8.80;;;5.10;;
26435;SDS011;15351;52.408;16.826;2023-04-03T18:24:50;8.20;;;4.60;;
26435;SDS011;15351;52.408;16.826;2023-04-03T18:27:20;8.90;;;4.60;;
26435;SDS011;15351;52.408;16.826;2023-04-03T18:29:49;10.60;;;4.30;;
26435;SDS011;15351;52.408;16.826;2023-04-03T18:32:19;10.70;;;5.60;;
26435;SDS011;15351;52.408;16.826;2023-04-03T18:34:47;11.90;;;6.70;;